Time;durP1;ratioP1;P1;durP2;ratioP2;P2;SDS_P1;SDS_P2;PMS_P1;PMS_P2;Temp;Humidity;BMP_temperature;BMP_pressure;BME280_temperature;BME280_humidity;BME280_pressure;Samples;Min_cycle;Max_cycle;Signal;HPM_P1;HPM_P2
2021/07/29 00:01:51;;;;;;;1.08;0.70;;;16.60;76.00;;;;;;6097328;23;20017;-87
2021/07/29 00:04:17;;;;;;;0.98;0.70;;;16.60;76.10;;;;;;6156426;23;20013;-86
2021/07/29 00:06:43;;;;;;;0.80;0.80;;;16.60;76.20;;;;;;6153993;23;20017;-84
2021/07/29 00:09:09;;;;;;;1.42;0.75;;;16.50;76.20;;;;;;6222024;23;20020;-85
2021/07/29 00:11:37;;;;;;;0.65;0.60;;;16.50;76.30;;;;;;6194277;23;20349;-87
2021/07/29 00:14:03;;;;;;;1.48;0.77;;;16.50;76.30;;;;;;6105456;23;20343;-85
2021/07/29 00:16:58;;;;;;;0.90;0.70;;;16.40;76.30;;;;;;6133255;23;20018;-88
2021/07/29 00:19:19;;;;;;;2.80;0.70;;;16.40;76.30;;;;;;6095004;23;20026;-86
2021/07/29 00:21:46;;;;;;;1.05;0.90;;;16.50;76.30;;;;;;6070371;23;20013;-86
2021/07/29 00:24:11;;;;;;;1.35;0.82;;;16.50;76.30;;;;;;6099442;23;20037;-87
2021/07/29 00:26:39;;;;;;;1.90;0.80;;;16.50;76.30;;;;;;6128015;23;20108;-87
2021/07/29 00:29:05;;;;;;;1.85;0.70;;;16.30;76.20;;;;;;6177649;23;20013;-86
2021/07/29 00:31:33;;;;;;;1.27;0.70;;;16.50;76.30;;;;;;6180149;23;20019;-86
2021/07/29 00:34:05;;;;;;;1.10;0.60;;;16.40;76.30;;;;;;6119565;23;20014;-88
2021/07/29 00:36:32;;;;;;;1.08;0.77;;;16.40;76.30;;;;;;6047658;23;20015;-87
2021/07/29 00:39:00;;;;;;;0.40;0.40;;;16.40;76.30;;;;;;6075529;23;20390;-87
2021/07/29 00:41:26;;;;;;;1.55;0.70;;;16.40;76.40;;;;;;6123353;23;20142;-85
2021/07/29 00:44:00;;;;;;;0.50;0.50;;;16.40;76.40;;;;;;6144994;22;20005;-86
2021/07/29 00:46:27;;;;;;;0.82;0.57;;;16.40;76.50;;;;;;6306208;22;20085;-85
2021/07/29 00:48:55;;;;;;;0.85;0.70;;;16.30;76.50;;;;;;6279523;22;20012;-87
2021/07/29 00:51:24;;;;;;;1.42;0.75;;;16.20;76.60;;;;;;6279570;22;20046;-89
2021/07/29 00:53:50;;;;;;;1.00;0.70;;;16.30;76.60;;;;;;6280240;22;20011;-85
2021/07/29 00:56:17;;;;;;;1.35;0.60;;;16.30;76.70;;;;;;6305193;22;20096;-87
2021/07/29 00:58:43;;;;;;;1.00;0.60;;;16.20;76.60;;;;;;6305847;22;20007;-87
2021/07/29 01:01:09;;;;;;;0.90;0.73;;;16.20;76.60;;;;;;6278911;22;20451;-86
2021/07/29 01:03:34;;;;;;;1.77;0.80;;;16.10;76.60;;;;;;6278891;22;20066;-86
2021/07/29 01:06:00;;;;;;;0.70;0.68;;;16.20;76.70;;;;;;6308236;22;20011;-85
2021/07/29 01:08:26;;;;;;;0.80;0.68;;;16.20;76.70;;;;;;6284074;22;20057;-85
2021/07/29 01:10:51;;;;;;;0.77;0.65;;;16.10;76.70;;;;;;6283677;22;20018;-86
2021/07/29 01:13:17;;;;;;;0.90;0.50;;;16.10;76.70;;;;;;6312432;22;20093;-86
2021/07/29 01:15:43;;;;;;;0.60;0.60;;;16.10;76.80;;;;;;6310844;22;20102;-86
2021/07/29 01:18:09;;;;;;;0.57;0.55;;;16.00;76.80;;;;;;6283903;22;20045;-86
2021/07/29 01:20:35;;;;;;;1.75;0.80;;;16.00;76.80;;;;;;6282478;22;20066;-85
2021/07/29 01:23:00;;;;;;;1.02;0.60;;;16.00;76.80;;;;;;6309565;22;20335;-87
2021/07/29 01:25:34;;;;;;;1.55;0.68;;;16.00;76.80;;;;;;6307685;22;20011;-88
2021/07/29 01:27:59;;;;;;;2.55;0.88;;;16.00;76.80;;;;;;6341397;22;20026;-86
2021/07/29 01:30:25;;;;;;;1.75;0.70;;;16.00;76.80;;;;;;6289904;22;20311;-87
2021/07/29 01:32:51;;;;;;;1.05;0.60;;;16.00;76.80;;;;;;6287012;22;20422;-83
2021/07/29 01:35:17;;;;;;;0.98;0.60;;;16.00;76.80;;;;;;6315876;22;20006;-85
2021/07/29 01:37:42;;;;;;;0.60;0.50;;;16.00;76.90;;;;;;6290247;22;20075;-87
2021/07/29 01:40:10;;;;;;;1.10;0.60;;;16.00;76.90;;;;;;6290365;22;20453;-88
2021/07/29 01:42:36;;;;;;;1.15;0.50;;;16.00;76.90;;;;;;6316939;22;20022;-87
2021/07/29 01:45:02;;;;;;;1.02;0.50;;;16.00;77.50;;;;;;6343166;22;20001;-86
2021/07/29 01:47:28;;;;;;;1.25;0.77;;;16.00;76.90;;;;;;6291859;22;20007;-84
2021/07/29 01:50:16;;;;;;;0.52;0.50;;;16.00;76.90;;;;;;6290145;22;19998;-89
2021/07/29 01:52:44;;;;;;;0.73;0.60;;;15.90;76.90;;;;;;6256520;22;20011;-85
2021/07/29 01:55:09;;;;;;;0.93;0.70;;;16.00;77.00;;;;;;6279669;22;20007;-85
2021/07/29 01:57:37;;;;;;;2.60;0.63;;;15.90;76.90;;;;;;6256767;22;21254;-84
2021/07/29 02:00:14;;;;;;;0.75;0.57;;;15.90;77.00;;;;;;6281040;22;20038;-87
2021/07/29 02:02:40;;;;;;;0.90;0.50;;;16.00;77.00;;;;;;6189854;23;20016;-85
2021/07/29 02:05:06;;;;;;;1.05;0.60;;;15.90;77.00;;;;;;6138743;23;20306;-85
2021/07/29 02:07:31;;;;;;;1.05;0.70;;;15.90;77.00;;;;;;6163275;23;20032;-86
2021/07/29 02:09:59;;;;;;;0.68;0.43;;;16.00;77.10;;;;;;6137590;23;20452;-87
2021/07/29 02:12:25;;;;;;;1.08;0.57;;;16.00;77.20;;;;;;6135527;23;20028;-86
2021/07/29 02:15:00;;;;;;;0.43;0.43;;;15.80;77.10;;;;;;6160459;23;20055;-88
2021/07/29 02:17:43;;;;;;;1.10;0.50;;;15.90;77.20;;;;;;6089474;23;20021;-87
2021/07/29 02:20:13;;;;;;;1.00;0.43;;;15.80;77.20;;;;;;6107765;23;20040;-89
2021/07/29 02:22:39;;;;;;;1.88;0.63;;;15.80;77.20;;;;;;6110708;23;20024;-87
2021/07/29 02:25:12;;;;;;;0.60;0.50;;;15.80;77.20;;;;;;6130742;23;20073;-86
2021/07/29 02:27:48;;;;;;;1.42;0.73;;;15.80;77.30;;;;;;6065096;23;20085;-88
2021/07/29 02:30:17;;;;;;;0.60;0.60;;;15.80;77.30;;;;;;6071268;23;20027;-86
2021/07/29 02:32:47;;;;;;;0.43;0.40;;;15.90;77.40;;;;;;6076022;23;20026;-88
2021/07/29 02:35:13;;;;;;;1.63;0.50;;;15.80;77.30;;;;;;6123234;23;20017;-87
2021/07/29 02:37:39;;;;;;;0.70;0.52;;;15.80;77.30;;;;;;6041786;23;20451;-86
2021/07/29 02:40:13;;;;;;;0.75;0.60;;;15.80;77.30;;;;;;6052355;23;20023;-87
2021/07/29 02:42:41;;;;;;;0.75;0.60;;;15.80;77.40;;;;;;6066403;23;20011;-88
2021/07/29 02:45:16;;;;;;;1.17;0.47;;;15.80;77.40;;;;;;6042863;23;20019;-88
2021/07/29 02:47:44;;;;;;;1.70;0.60;;;15.70;77.40;;;;;;6013326;23;20110;-88
2021/07/29 02:50:10;;;;;;;0.85;0.52;;;15.70;77.40;;;;;;5990056;23;20014;-87
2021/07/29 02:52:38;;;;;;;0.88;0.50;;;15.70;77.50;;;;;;5965858;23;20468;-87
2021/07/29 02:55:04;;;;;;;0.77;0.50;;;15.60;77.50;;;;;;5987595;23;20015;-87
2021/07/29 02:57:35;;;;;;;1.25;0.50;;;15.70;77.50;;;;;;5960967;23;20165;-87
2021/07/29 03:00:03;;;;;;;1.30;0.52;;;15.70;77.50;;;;;;6018375;23;20094;-87
2021/07/29 03:02:29;;;;;;;1.00;0.40;;;15.60;77.50;;;;;;6127925;23;20006;-87
2021/07/29 03:04:57;;;;;;;0.55;0.32;;;15.70;77.60;;;;;;6127181;23;20021;-87
2021/07/29 03:07:23;;;;;;;1.52;0.63;;;15.60;77.60;;;;;;6126940;23;20053;-88
2021/07/29 03:09:52;;;;;;;1.48;0.60;;;15.60;77.60;;;;;;6217116;23;20016;-88
2021/07/29 03:12:18;;;;;;;3.28;0.70;;;15.70;77.70;;;;;;6196164;23;20017;-88
2021/07/29 03:14:46;;;;;;;1.75;0.30;;;15.60;77.70;;;;;;6162364;23;20477;-88
2021/07/29 03:17:12;;;;;;;1.02;0.50;;;15.70;77.80;;;;;;6161844;23;20020;-88
2021/07/29 03:19:48;;;;;;;1.17;0.57;;;15.60;77.80;;;;;;6126021;23;20033;-87
2021/07/29 03:22:14;;;;;;;0.70;0.40;;;15.60;77.80;;;;;;6211720;23;20016;-87
2021/07/29 03:24:40;;;;;;;1.55;0.77;;;15.60;77.80;;;;;;6194382;23;20085;-88
2021/07/29 03:27:05;;;;;;;0.47;0.47;;;15.60;77.70;;;;;;6168619;23;20437;-87
2021/07/29 03:29:33;;;;;;;1.13;0.52;;;15.60;77.70;;;;;;6193734;23;20091;-87
2021/07/29 03:31:59;;;;;;;2.22;0.60;;;15.60;77.70;;;;;;6169103;23;20019;-86
2021/07/29 03:34:27;;;;;;;1.92;0.80;;;15.60;77.60;;;;;;6167620;23;20008;-88
2021/07/29 03:37:05;;;;;;;1.10;0.55;;;15.70;77.70;;;;;;6133210;23;20028;-87
2021/07/29 03:39:33;;;;;;;1.08;0.45;;;15.70;77.80;;;;;;6114690;23;20047;-85
2021/07/29 03:42:07;;;;;;;0.90;0.50;;;15.70;77.80;;;;;;6163446;23;20020;-88
2021/07/29 03:44:33;;;;;;;2.60;0.55;;;15.70;77.80;;;;;;6190336;23;20043;-87
2021/07/29 03:46:58;;;;;;;0.82;0.55;;;15.60;77.70;;;;;;6189751;23;20008;-87
2021/07/29 03:49:24;;;;;;;0.50;0.40;;;15.70;77.80;;;;;;6189664;23;20008;-85
2021/07/29 03:51:50;;;;;;;1.10;0.52;;;15.70;77.70;;;;;;6223425;22;20004;-86
2021/07/29 03:54:16;;;;;;;0.40;0.40;;;15.70;77.70;;;;;;6157881;23;20009;-86
2021/07/29 03:56:44;;;;;;;0.50;0.50;;;15.70;77.70;;;;;;6182409;23;20029;-85
2021/07/29 03:59:10;;;;;;;0.45;0.30;;;15.80;77.80;;;;;;6158097;23;20017;-86
2021/07/29 04:01:35;;;;;;;2.17;0.50;;;15.80;77.80;;;;;;6219675;22;20156;-87
2021/07/29 04:04:01;;;;;;;1.35;0.50;;;15.80;77.80;;;;;;6248648;22;20023;-87
2021/07/29 04:06:27;;;;;;;1.10;0.60;;;15.70;77.80;;;;;;6224434;22;20004;-87
2021/07/29 04:08:55;;;;;;;0.82;0.40;;;15.80;77.80;;;;;;6248289;22;20031;-87
2021/07/29 04:11:21;;;;;;;0.85;0.50;;;15.80;77.90;;;;;;6223025;22;20510;-86
2021/07/29 04:13:55;;;;;;;0.88;0.50;;;15.70;77.90;;;;;;6214843;22;20024;-87
2021/07/29 04:16:23;;;;;;;1.95;0.77;;;15.80;77.90;;;;;;6250160;22;20511;-87
2021/07/29 04:18:54;;;;;;;1.95;0.70;;;15.80;77.90;;;;;;6248516;22;20046;-87
2021/07/29 04:21:23;;;;;;;1.33;0.60;;;15.80;77.90;;;;;;6187199;23;20013;-87
2021/07/29 04:23:49;;;;;;;2.00;0.60;;;15.80;77.90;;;;;;6205963;23;20160;-86
2021/07/29 04:26:14;;;;;;;2.33;0.85;;;15.80;77.90;;;;;;6209991;23;20012;-87
2021/07/29 04:28:42;;;;;;;1.77;0.70;;;15.80;77.90;;;;;;6211709;23;20090;-88
2021/07/29 04:31:15;;;;;;;1.15;0.60;;;15.80;77.90;;;;;;6189632;23;20091;-85
2021/07/29 04:33:40;;;;;;;0.50;0.45;;;15.80;78.00;;;;;;6163167;23;20012;-86
2021/07/29 04:36:06;;;;;;;0.82;0.60;;;15.80;78.10;;;;;;6165384;23;20031;-88
2021/07/29 04:38:33;;;;;;;1.58;0.50;;;15.80;78.10;;;;;;6139724;23;20013;-88
2021/07/29 04:41:04;;;;;;;1.10;0.60;;;15.70;78.10;;;;;;6190441;23;20013;-87
2021/07/29 04:43:30;;;;;;;;;;;15.70;78.20;;;;;;6100141;23;20014;-87
2021/07/29 04:46:03;;;;;;;2.42;0.65;;;15.80;78.20;;;;;;6123113;23;19909;-88
2021/07/29 04:48:30;;;;;;;2.35;0.50;;;15.70;78.20;;;;;;6040900;23;20038;-87
2021/07/29 04:51:02;;;;;;;2.20;0.60;;;15.80;78.40;;;;;;6039039;23;20448;-89
2021/07/29 04:53:28;;;;;;;0.70;0.38;;;15.60;78.30;;;;;;6119499;23;20013;-88
2021/07/29 04:56:01;;;;;;;0.63;0.40;;;15.60;78.40;;;;;;6104406;23;20036;-88
2021/07/29 04:58:26;;;;;;;2.35;0.38;;;15.60;78.50;;;;;;6039553;23;20023;-87
2021/07/29 05:00:52;;;;;;;0.50;0.30;;;15.60;79.20;;;;;;6105574;23;20001;-88
2021/07/29 05:06:40;;;;;;;0.68;0.38;;;15.70;78.70;;;;;;5960937;23;20052;-88
2021/07/29 05:09:08;;;;;;;1.58;0.60;;;15.60;78.70;;;;;;5924138;24;20484;-88
2021/07/29 05:11:40;;;;;;;2.03;0.50;;;15.60;78.60;;;;;;5877277;24;20017;-88
2021/07/29 05:14:15;;;;;;;1.15;0.63;;;15.70;78.70;;;;;;5882849;24;20070;-88
2021/07/29 05:16:41;;;;;;;0.60;0.43;;;15.70;78.70;;;;;;5898854;24;20356;-87
2021/07/29 05:19:09;;;;;;;0.82;0.43;;;15.70;78.60;;;;;;5902498;24;20028;-87
2021/07/29 05:21:41;;;;;;;1.00;0.60;;;15.80;78.50;;;;;;5903927;24;20386;-87
2021/07/29 05:24:15;;;;;;;;;;;15.80;78.40;;;;;;5872985;24;20028;-87
2021/07/29 05:30:27;;;;;;;1.15;0.60;;;16.00;78.20;;;;;;5858130;24;20030;-89
2021/07/29 05:32:52;;;;;;;0.77;0.40;;;16.00;78.10;;;;;;5869617;24;20055;-87
2021/07/29 05:36:13;;;;;;;0.40;0.40;;;16.10;78.10;;;;;;5929389;24;20029;-86
2021/07/29 05:38:57;;;;;;;1.10;0.60;;;16.10;78.00;;;;;;5938502;24;20024;-88
2021/07/29 05:41:49;;;;;;;2.13;0.70;;;16.20;77.90;;;;;;5950508;24;20021;-87
2021/07/29 05:44:21;;;;;;;1.17;0.55;;;16.20;77.80;;;;;;5979390;24;20020;-86
2021/07/29 05:46:47;;;;;;;1.00;0.60;;;16.20;78.40;;;;;;5990098;23;20023;-84
2021/07/29 05:49:13;;;;;;;1.42;0.60;;;16.30;77.80;;;;;;5996780;23;20037;-79
2021/07/29 05:51:38;;;;;;;1.02;0.50;;;16.30;77.70;;;;;;6063909;23;20499;-79
2021/07/29 05:54:04;;;;;;;3.03;0.80;;;16.30;77.90;;;;;;6041193;23;20015;-79
2021/07/29 05:56:30;;;;;;;1.63;0.80;;;16.40;77.90;;;;;;6121655;23;20080;-80
2021/07/29 05:58:55;;;;;;;1.08;0.70;;;16.30;77.80;;;;;;6121756;23;20064;-80
2021/07/29 06:01:22;;;;;;;1.15;0.60;;;16.40;77.90;;;;;;6121738;23;20034;-80
2021/07/29 06:03:48;;;;;;;1.13;0.63;;;16.40;77.90;;;;;;6121932;23;20014;-79
2021/07/29 06:06:14;;;;;;;1.92;0.82;;;16.40;77.90;;;;;;6122525;23;20422;-79
2021/07/29 06:08:39;;;;;;;2.30;0.80;;;16.40;77.80;;;;;;6198371;22;20426;-78
2021/07/29 06:11:05;;;;;;;0.82;0.60;;;16.40;77.80;;;;;;6277013;22;19999;-79
2021/07/29 06:13:31;;;;;;;1.65;0.88;;;16.50;77.90;;;;;;6302817;22;20052;-79
2021/07/29 06:16:02;;;;;;;3.90;1.00;;;16.50;78.00;;;;;;6329426;22;20322;-78
2021/07/29 06:18:28;;;;;;;3.00;0.82;;;16.50;78.00;;;;;;6315705;22;20014;-78
2021/07/29 06:20:53;;;;;;;1.80;0.98;;;16.40;77.90;;;;;;6339156;22;20021;-79
2021/07/29 06:23:19;;;;;;;2.10;0.70;;;16.40;77.90;;;;;;6368255;22;19998;-79
2021/07/29 06:25:45;;;;;;;2.10;0.95;;;16.50;77.90;;;;;;6312459;22;20092;-79
2021/07/29 06:28:13;;;;;;;1.42;0.90;;;16.60;78.50;;;;;;6368901;22;20022;-79
2021/07/29 06:30:42;;;;;;;1.85;0.93;;;16.50;77.80;;;;;;6341619;22;20055;-79
2021/07/29 06:33:07;;;;;;;2.38;0.93;;;16.50;77.90;;;;;;6367927;22;20423;-79
2021/07/29 06:35:33;;;;;;;2.30;1.00;;;16.50;78.10;;;;;;6367039;22;20006;-80
2021/07/29 06:37:59;;;;;;;0.82;0.77;;;16.50;78.10;;;;;;6340474;22;19998;-79
2021/07/29 06:40:25;;;;;;;1.27;0.80;;;16.50;78.10;;;;;;6288229;22;20026;-79
2021/07/29 06:42:50;;;;;;;1.92;0.73;;;16.60;78.10;;;;;;6344785;22;20013;-80
2021/07/29 06:45:17;;;;;;;2.13;0.93;;;16.70;78.00;;;;;;6321900;22;19995;-79
2021/07/29 06:47:42;;;;;;;2.17;0.93;;;16.70;77.80;;;;;;6372759;22;21161;-79
2021/07/29 06:50:09;;;;;;;1.10;0.88;;;16.70;77.70;;;;;;6318831;22;19998;-83
2021/07/29 06:52:39;;;;;;;4.32;1.13;;;16.90;77.80;;;;;;6346906;22;20010;-87
2021/07/29 06:55:15;;;;;;;2.30;0.80;;;16.90;77.60;;;;;;6313538;22;20038;-87
2021/07/29 06:57:50;;;;;;;2.35;1.00;;;17.10;77.30;;;;;;6300986;22;20015;-88
2021/07/29 07:00:37;;;;;;;2.45;0.95;;;17.40;77.30;;;;;;6260412;22;20015;-89
2021/07/29 07:03:03;;;;;;;1.92;1.00;;;17.20;77.00;;;;;;6285181;22;20019;-86
2021/07/29 07:06:05;;;;;;;2.17;1.13;;;17.40;76.90;;;;;;6283805;22;20021;-86
2021/07/29 07:12:26;;;;;;;2.30;1.02;;;17.50;76.30;;;;;;6326222;22;20021;-82
2021/07/29 07:14:52;;;;;;;1.30;0.88;;;17.60;76.00;;;;;;6283441;22;20038;-85
2021/07/29 07:17:41;;;;;;;4.28;1.52;;;17.70;76.00;;;;;;6283624;22;20084;-87
2021/07/29 07:20:17;;;;;;;2.50;1.30;;;17.70;75.70;;;;;;6191238;23;20091;-90
2021/07/29 07:27:18;;;;;;;1.70;1.00;;;17.90;75.70;;;;;;6169146;23;20024;-87
2021/07/29 07:37:27;;;;;;;1.27;0.82;;;18.10;75.40;;;;;;6316952;22;20019;-86
2021/07/29 07:40:35;;;;;;;2.45;1.10;;;18.10;75.30;;;;;;6280225;22;20022;-86
2021/07/29 07:46:23;;;;;;;2.10;0.98;;;18.40;75.20;;;;;;6145479;23;20031;-81
2021/07/29 07:48:49;;;;;;;1.92;0.80;;;18.30;75.10;;;;;;6157012;23;20090;-83
2021/07/29 07:51:14;;;;;;;1.13;0.70;;;18.40;75.00;;;;;;6155988;23;20337;-82
2021/07/29 07:53:43;;;;;;;1.00;0.80;;;18.60;74.90;;;;;;6181818;23;20036;-85
2021/07/29 07:56:14;;;;;;;0.80;0.65;;;18.70;74.60;;;;;;6150301;23;20014;-85
2021/07/29 07:58:40;;;;;;;1.20;0.77;;;18.80;74.30;;;;;;6121688;23;20065;-85
2021/07/29 08:01:20;;;;;;;2.42;0.80;;;19.00;73.90;;;;;;6089534;23;20006;-85
2021/07/29 08:08:35;;;;;;;2.58;1.10;;;18.80;74.10;;;;;;6038011;23;20030;-88
2021/07/29 08:11:58;;;;;;;2.45;1.00;;;18.70;74.70;;;;;;5997138;23;20516;-88
2021/07/29 08:14:40;;;;;;;1.92;1.08;;;18.80;74.50;;;;;;6018653;23;20037;-87
2021/07/29 08:17:10;;;;;;;2.58;1.02;;;18.90;74.30;;;;;;6008942;23;20106;-87
2021/07/29 08:23:42;;;;;;;1.75;0.98;;;19.20;73.80;;;;;;6019954;23;20030;-87
2021/07/29 08:26:11;;;;;;;2.38;0.90;;;19.50;73.40;;;;;;6004304;23;20472;-86
2021/07/29 08:28:42;;;;;;;3.33;1.10;;;19.70;73.00;;;;;;5986369;23;20021;-86
2021/07/29 08:31:17;;;;;;;1.60;1.00;;;19.80;72.50;;;;;;6035694;23;20023;-88
2021/07/29 08:33:45;;;;;;;2.22;1.13;;;19.70;72.10;;;;;;6035176;23;20094;-83
2021/07/29 08:36:42;;;;;;;3.88;1.27;;;19.80;72.70;;;;;;6036544;23;20027;-89
2021/07/29 08:39:10;;;;;;;3.38;1.35;;;19.90;71.70;;;;;;6040405;23;20101;-85
2021/07/29 08:49:07;;;;;;;1.52;1.13;;;19.80;71.70;;;;;;5927316;24;20017;-83
2021/07/29 08:51:46;;;;;;;1.25;0.90;;;19.90;71.50;;;;;;5791197;24;20019;-87
2021/07/29 08:55:03;;;;;;;1.35;0.82;;;20.00;71.60;;;;;;5835413;24;20019;-85
2021/07/29 08:57:40;;;;;;;2.83;1.20;;;20.20;71.30;;;;;;5814708;24;20043;-87
2021/07/29 09:00:26;;;;;;;1.60;0.80;;;20.10;71.10;;;;;;5764669;24;20111;-88
2021/07/29 09:03:52;;;;;;;0.80;0.70;;;20.10;71.50;;;;;;5726955;25;20055;-87
2021/07/29 09:06:23;;;;;;;1.30;0.70;;;20.30;71.40;;;;;;5717247;25;20048;-83
2021/07/29 09:11:52;;;;;;;0.70;0.60;;;20.50;70.70;;;;;;5755178;24;20028;-85
2021/07/29 09:14:19;;;;;;;2.28;0.90;;;20.50;70.80;;;;;;5763022;24;20024;-82
2021/07/29 09:17:03;;;;;;;1.67;0.80;;;20.50;70.60;;;;;;5739654;24;20036;-84
2021/07/29 09:19:35;;;;;;;3.15;1.10;;;20.60;70.30;;;;;;5859520;24;20452;-85
2021/07/29 09:22:20;;;;;;;1.67;0.80;;;20.60;70.30;;;;;;5825569;24;20101;-84
2021/07/29 09:25:10;;;;;;;1.92;1.17;;;20.60;70.20;;;;;;5846421;24;20552;-86
2021/07/29 09:31:27;;;;;;;1.80;0.88;;;20.70;70.40;;;;;;5869268;24;20107;-89
2021/07/29 09:34:02;;;;;;;1.50;0.80;;;20.60;70.00;;;;;;5850608;24;20030;-91
2021/07/29 09:36:34;;;;;;;1.67;0.70;;;20.50;70.20;;;;;;5952702;24;20052;-87
2021/07/29 09:39:21;;;;;;;2.05;0.90;;;20.50;70.50;;;;;;5975055;23;20012;-87
2021/07/29 09:42:07;;;;;;;1.10;0.82;;;20.60;70.10;;;;;;5978251;24;20080;-87
2021/07/29 09:59:03;;;;;;;1.40;0.80;;;21.00;68.80;;;;;;5949105;24;20027;-88
2021/07/29 10:01:35;;;;;;;3.00;0.80;;;21.20;68.80;;;;;;5844409;24;20097;-88
2021/07/29 10:04:46;;;;;;;0.95;0.75;;;21.20;68.50;;;;;;5794779;24;20019;-84
2021/07/29 10:07:51;;;;;;;2.65;1.02;;;21.10;68.50;;;;;;5785780;24;20064;-86
2021/07/29 10:10:20;;;;;;;1.38;0.90;;;21.20;68.40;;;;;;5798098;24;20030;-85
2021/07/29 10:12:53;;;;;;;1.02;0.80;;;21.00;68.60;;;;;;5810261;24;20599;-84
2021/07/29 10:15:46;;;;;;;2.53;0.95;;;21.00;68.50;;;;;;5812262;24;20538;-84
2021/07/29 10:19:07;;;;;;;3.28;1.00;;;21.10;68.30;;;;;;5834692;24;20022;-91
2021/07/29 10:22:47;;;;;;;1.10;0.70;;;21.20;67.90;;;;;;5845635;24;20018;-85
2021/07/29 10:28:51;;;;;;;0.98;0.73;;;21.40;67.40;;;;;;5896829;24;20049;-90
2021/07/29 10:31:48;;;;;;;1.58;0.80;;;21.30;67.70;;;;;;5843758;24;20049;-89
2021/07/29 10:34:50;;;;;;;1.45;0.77;;;21.10;68.60;;;;;;5869297;24;20078;-89
2021/07/29 10:38:00;;;;;;;1.58;0.70;;;20.80;68.20;;;;;;5895352;24;20056;-84
2021/07/29 10:40:38;;;;;;;2.22;0.95;;;20.70;68.20;;;;;;5906082;24;20009;-85
2021/07/29 10:43:36;;;;;;;1.00;0.68;;;20.60;68.40;;;;;;5899403;24;20026;-83
2021/07/29 10:46:17;;;;;;;2.13;0.90;;;20.70;68.30;;;;;;5897551;24;20017;-88
2021/07/29 10:52:14;;;;;;;1.42;0.98;;;20.40;68.60;;;;;;5832346;24;20071;-85
2021/07/29 10:55:12;;;;;;;1.45;0.77;;;19.90;69.60;;;;;;5917493;24;20010;-84
2021/07/29 10:57:38;;;;;;;2.83;0.80;;;19.60;70.50;;;;;;5851769;24;20061;-86
2021/07/29 11:00:04;;;;;;;2.05;0.82;;;19.30;71.20;;;;;;5877086;24;20184;-84
2021/07/29 11:02:40;;;;;;;0.90;0.63;;;19.10;71.60;;;;;;6019934;23;20093;-88
2021/07/29 11:05:34;;;;;;;3.05;0.75;;;19.00;72.00;;;;;;6102314;23;20021;-86
2021/07/29 11:08:08;;;;;;;1.08;0.55;;;19.20;72.20;;;;;;6061828;23;20037;-87
2021/07/29 11:10:37;;;;;;;1.75;0.60;;;19.30;72.20;;;;;;6097618;23;20018;-85
2021/07/29 11:13:03;;;;;;;0.63;0.52;;;19.50;71.70;;;;;;6158686;23;20039;-84
2021/07/29 11:15:28;;;;;;;1.60;0.77;;;19.70;71.30;;;;;;6215853;22;20549;-83
2021/07/29 11:18:09;;;;;;;2.22;0.70;;;19.90;70.80;;;;;;6216028;23;20097;-86
2021/07/29 11:20:40;;;;;;;1.23;0.80;;;20.00;70.20;;;;;;6277963;22;20060;-86
2021/07/29 11:23:13;;;;;;;2.92;0.90;;;20.00;70.00;;;;;;6279613;22;20019;-86
2021/07/29 11:26:05;;;;;;;1.90;0.93;;;20.00;69.80;;;;;;6305200;22;20443;-88
2021/07/29 11:28:31;;;;;;;2.78;1.00;;;20.00;69.80;;;;;;6275055;22;20015;-86
2021/07/29 11:31:08;;;;;;;1.48;0.90;;;20.00;69.90;;;;;;6254155;22;20065;-87
2021/07/29 11:34:28;;;;;;;1.52;0.90;;;20.20;69.50;;;;;;6206791;23;20032;-87
2021/07/29 11:36:57;;;;;;;1.38;0.90;;;20.20;69.20;;;;;;6211683;23;20020;-86
2021/07/29 11:39:37;;;;;;;1.52;0.80;;;20.10;69.10;;;;;;6212801;22;20472;-85
2021/07/29 11:42:05;;;;;;;2.63;1.08;;;20.10;69.30;;;;;;6211742;23;20524;-83
2021/07/29 11:44:51;;;;;;;1.60;0.90;;;19.90;69.10;;;;;;6218182;23;20012;-84
2021/07/29 11:50:39;;;;;;;2.65;0.95;;;19.60;69.80;;;;;;6062986;23;20090;-83
2021/07/29 11:53:12;;;;;;;1.63;1.00;;;19.40;69.90;;;;;;6035895;23;20103;-83
2021/07/29 11:55:39;;;;;;;3.08;1.05;;;19.30;70.10;;;;;;6030649;23;20024;-81
2021/07/29 11:58:07;;;;;;;3.90;1.00;;;19.30;70.00;;;;;;6035671;23;20027;-84
2021/07/29 12:00:36;;;;;;;2.22;1.00;;;19.30;70.00;;;;;;6042954;23;20082;-87
2021/07/29 12:03:04;;;;;;;2.13;0.90;;;19.40;69.90;;;;;;6059548;23;20318;-87
2021/07/29 12:08:52;;;;;;;2.75;1.10;;;19.70;69.30;;;;;;6091219;23;20017;-83
2021/07/29 12:11:20;;;;;;;1.95;0.80;;;19.80;68.60;;;;;;6089887;23;20032;-82
2021/07/29 12:13:47;;;;;;;2.30;1.20;;;20.10;68.20;;;;;;6092375;23;20006;-84
2021/07/29 12:17:03;;;;;;;2.88;1.05;;;20.20;67.80;;;;;;6093176;23;20467;-84
2021/07/29 12:20:02;;;;;;;1.80;0.90;;;20.20;67.80;;;;;;5980457;23;20016;-84
2021/07/29 12:22:34;;;;;;;1.98;0.90;;;20.40;67.50;;;;;;6089217;23;20006;-84
2021/07/29 12:25:07;;;;;;;1.75;0.93;;;20.50;67.10;;;;;;6170848;23;20029;-87
2021/07/29 12:28:22;;;;;;;1.33;0.80;;;20.60;67.00;;;;;;6156537;23;20021;-85
2021/07/29 12:37:57;;;;;;;2.83;1.02;;;20.90;66.40;;;;;;5962628;23;20028;-87
2021/07/29 12:40:25;;;;;;;2.53;1.05;;;20.90;66.20;;;;;;5959040;24;20024;-81
2021/07/29 12:43:11;;;;;;;2.50;0.98;;;20.90;66.20;;;;;;5981405;24;20016;-83
2021/07/29 12:45:56;;;;;;;2.63;1.23;;;20.80;66.30;;;;;;5979723;24;20020;-85
2021/07/29 12:48:24;;;;;;;3.60;0.95;;;20.60;66.50;;;;;;5978729;24;20039;-85
2021/07/29 12:50:50;;;;;;;4.00;0.70;;;20.60;66.80;;;;;;5978967;24;20031;-87
2021/07/29 12:53:16;;;;;;;1.00;0.70;;;20.50;66.80;;;;;;5988016;23;20610;-83
2021/07/29 12:55:44;;;;;;;0.60;0.57;;;20.50;67.10;;;;;;6007493;23;20047;-84
2021/07/29 12:58:10;;;;;;;2.10;0.70;;;20.30;67.20;;;;;;6006468;23;20099;-83
2021/07/29 13:00:38;;;;;;;1.85;0.73;;;20.20;67.50;;;;;;5985380;23;20016;-84
2021/07/29 13:03:16;;;;;;;1.38;0.68;;;20.10;68.00;;;;;;6012353;23;20138;-87
2021/07/29 13:05:42;;;;;;;1.13;0.50;;;19.80;68.40;;;;;;6039591;23;20049;-88
2021/07/29 13:08:08;;;;;;;1.40;0.80;;;19.60;69.00;;;;;;6077705;23;20018;-85
2021/07/29 13:29:07;;;;;;;0.73;0.70;;;20.30;68.60;;;;;;6119167;23;20025;-86
2021/07/29 13:31:42;;;;;;;1.58;0.70;;;20.20;68.60;;;;;;6096456;23;20017;-86
2021/07/29 13:34:08;;;;;;;1.10;0.77;;;20.20;69.00;;;;;;6115368;23;20022;-86
2021/07/29 13:37:09;;;;;;;1.73;0.80;;;20.20;69.00;;;;;;6044866;23;20084;-88
2021/07/29 13:43:05;;;;;;;0.85;0.50;;;20.20;69.30;;;;;;6039836;23;19989;-81
2021/07/29 13:49:50;;;;;;;1.55;0.70;;;20.60;68.70;;;;;;5951995;24;20480;-86
2021/07/29 13:52:26;;;;;;;0.80;0.60;;;20.70;68.30;;;;;;5971375;23;20026;-86
2021/07/29 13:55:25;;;;;;;2.22;0.70;;;20.80;68.00;;;;;;5981257;23;20032;-87
2021/07/29 13:58:07;;;;;;;2.08;0.95;;;20.70;67.80;;;;;;6031892;23;20130;-84
2021/07/29 14:00:36;;;;;;;1.25;0.80;;;20.60;68.00;;;;;;5956509;24;20094;-86
2021/07/29 14:03:05;;;;;;;1.08;0.68;;;20.40;68.20;;;;;;5961048;24;20068;-85
2021/07/29 14:08:54;;;;;;;1.77;0.80;;;20.50;68.50;;;;;;5983397;23;20023;-87
2021/07/29 14:11:19;;;;;;;2.17;0.90;;;20.50;68.50;;;;;;6021714;23;20023;-88
2021/07/29 14:14:45;;;;;;;1.33;0.80;;;20.60;68.10;;;;;;6013291;23;20078;-87
2021/07/29 14:17:50;;;;;;;1.15;0.73;;;20.70;68.00;;;;;;5922031;24;20167;-86
2021/07/29 14:20:19;;;;;;;1.33;0.70;;;20.60;67.90;;;;;;5861691;24;20087;-82
2021/07/29 14:25:30;;;;;;;2.08;1.00;;;20.60;68.10;;;;;;5876980;24;20032;-85
2021/07/29 14:28:30;;;;;;;1.15;0.70;;;20.70;68.10;;;;;;5868349;24;20021;-85
2021/07/29 14:35:30;;;;;;;0.95;0.60;;;20.90;67.70;;;;;;5866197;24;20475;-88
2021/07/29 14:38:21;;;;;;;2.00;0.80;;;21.00;67.30;;;;;;5897554;24;20100;-87
2021/07/29 14:40:56;;;;;;;1.13;0.77;;;21.20;67.90;;;;;;5931031;24;20028;-82
2021/07/29 14:53:48;;;;;;;1.83;0.90;;;21.30;67.10;;;;;;5882982;24;20121;-86
2021/07/29 14:56:24;;;;;;;1.30;0.82;;;21.40;67.40;;;;;;5871304;24;20045;-86
2021/07/29 16:07:19;;;;;;;0.65;0.65;;;21.80;63.80;;;;;;6242438;23;20870;-78
2021/07/29 16:09:45;;;;;;;1.75;0.73;;;21.90;63.70;;;;;;6221548;23;20046;-80
2021/07/29 16:12:10;;;;;;;0.95;0.50;;;21.90;63.60;;;;;;6195959;22;20007;-80
2021/07/29 16:14:36;;;;;;;1.42;0.80;;;22.00;63.50;;;;;;6284045;22;20467;-80
2021/07/29 16:17:02;;;;;;;0.52;0.52;;;22.00;63.30;;;;;;6285015;22;20011;-80
2021/07/29 16:19:30;;;;;;;0.63;0.63;;;21.90;63.20;;;;;;6308600;22;20064;-80
2021/07/29 16:21:56;;;;;;;0.73;0.60;;;21.90;63.30;;;;;;6282737;22;20007;-80
2021/07/29 16:24:22;;;;;;;2.38;0.80;;;21.80;63.30;;;;;;6307841;22;20006;-78
2021/07/29 16:26:50;;;;;;;0.80;0.57;;;21.80;63.40;;;;;;6308195;22;20022;-81
2021/07/29 16:29:16;;;;;;;0.80;0.68;;;21.70;63.60;;;;;;6279195;22;20030;-80
2021/07/29 16:31:44;;;;;;;0.35;0.35;;;21.50;63.70;;;;;;6339805;22;20437;-84
2021/07/29 16:34:19;;;;;;;0.60;0.47;;;21.60;63.90;;;;;;6312730;22;20003;-84
2021/07/29 16:39:35;;;;;;;1.48;0.75;;;21.50;63.60;;;;;;6259830;22;20004;-79
2021/07/29 16:42:04;;;;;;;1.33;0.60;;;21.60;63.40;;;;;;6226277;22;20351;-79